sensor_id;sensor_type;location;lat;lon;timestamp;temperature;humidity
21176;DHT22;10746;50.178;8.186;2023-02-01T00:00:30;3.90;99.90
21176;DHT22;10746;50.178;8.186;2023-02-01T00:02:58;3.90;99.90
21176;DHT22;10746;50.178;8.186;2023-02-01T00:05:25;3.90;99.90
21176;DHT22;10746;50.178;8.186;2023-02-01T00:07:52;3.90;99.90
21176;DHT22;10746;50.178;8.186;2023-02-01T00:10:19;3.80;99.90
21176;DHT22;10746;50.178;8.186;2023-02-01T00:12:45;3.90;99.90
21176;DHT22;10746;50.178;8.186;2023-02-01T00:15:12;3.90;99.90
21176;DHT22;10746;50.178;8.186;2023-02-01T00:17:41;3.90;99.90
21176;DHT22;10746;50.178;8.186;2023-02-01T00:20:09;3.80;99.90
21176;DHT22;10746;50.178;8.186;2023-02-01T00:22:35;3.80;99.90
21176;DHT22;10746;50.178;8.186;2023-02-01T00:25:03;3.80;99.90
21176;DHT22;10746;50.178;8.186;2023-02-01T00:27:29;3.80;99.90
21176;DHT22;10746;50.178;8.186;2023-02-01T00:29:56;3.80;99.90
21176;DHT22;10746;50.178;8.186;2023-02-01T00:32:23;3.70;99.90
21176;DHT22;10746;50.178;8.186;2023-02-01T00:34:51;3.80;99.90
21176;DHT22;10746;50.178;8.186;2023-02-01T00:37:17;3.80;99.90
21176;DHT22;10746;50.178;8.186;2023-02-01T00:39:44;3.80;99.90
21176;DHT22;10746;50.178;8.186;2023-02-01T00:42:11;3.80;99.90
21176;DHT22;10746;50.178;8.186;2023-02-01T00:44:38;3.80;99.90
21176;DHT22;10746;50.178;8.186;2023-02-01T00:47:05;3.80;99.90
21176;DHT22;10746;50.178;8.186;2023-02-01T00:49:31;3.90;99.90
21176;DHT22;10746;50.178;8.186;2023-02-01T00:51:59;3.90;99.90
21176;DHT22;10746;50.178;8.186;2023-02-01T00:54:26;3.90;99.90
21176;DHT22;10746;50.178;8.186;2023-02-01T00:56:53;3.90;99.90
21176;DHT22;10746;50.178;8.186;2023-02-01T00:59:20;3.90;99.90
21176;DHT22;10746;50.178;8.186;2023-02-01T01:01:47;3.80;99.90
21176;DHT22;10746;50.178;8.186;2023-02-01T01:04:13;3.90;99.90
21176;DHT22;10746;50.178;8.186;2023-02-01T01:06:40;3.90;99.90
21176;DHT22;10746;50.178;8.186;2023-02-01T01:09:09;3.90;99.90
21176;DHT22;10746;50.178;8.186;2023-02-01T01:11:37;3.90;99.90
21176;DHT22;10746;50.178;8.186;2023-02-01T01:14:05;3.90;99.90
21176;DHT22;10746;50.178;8.186;2023-02-01T01:16:33;3.90;99.90
21176;DHT22;10746;50.178;8.186;2023-02-01T01:19:00;4.00;99.90
21176;DHT22;10746;50.178;8.186;2023-02-01T01:21:28;4.00;99.90
21176;DHT22;10746;50.178;8.186;2023-02-01T01:23:55;4.00;99.90
21176;DHT22;10746;50.178;8.186;2023-02-01T01:26:25;4.00;99.90
21176;DHT22;10746;50.178;8.186;2023-02-01T01:28:54;4.00;99.90
21176;DHT22;10746;50.178;8.186;2023-02-01T01:31:22;4.00;99.90
21176;DHT22;10746;50.178;8.186;2023-02-01T01:33:49;3.90;99.90
21176;DHT22;10746;50.178;8.186;2023-02-01T01:36:17;3.90;99.90
21176;DHT22;10746;50.178;8.186;2023-02-01T01:38:43;4.00;99.90
21176;DHT22;10746;50.178;8.186;2023-02-01T01:41:14;4.00;99.90
21176;DHT22;10746;50.178;8.186;2023-02-01T01:43:53;4.00;99.90
21176;DHT22;10746;50.178;8.186;2023-02-01T01:46:21;4.00;99.90
21176;DHT22;10746;50.178;8.186;2023-02-01T01:48:51;4.00;99.90
21176;DHT22;10746;50.178;8.186;2023-02-01T01:51:21;4.10;99.90
21176;DHT22;10746;50.178;8.186;2023-02-01T01:53:55;4.00;99.90
21176;DHT22;10746;50.178;8.186;2023-02-01T01:56:25;4.00;99.90
21176;DHT22;10746;50.178;8.186;2023-02-01T01:58:55;4.10;99.90
21176;DHT22;10746;50.178;8.186;2023-02-01T02:01:22;4.10;99.90
21176;DHT22;10746;50.178;8.186;2023-02-01T02:03:51;4.10;99.90
21176;DHT22;10746;50.178;8.186;2023-02-01T02:06:27;4.10;99.90
21176;DHT22;10746;50.178;8.186;2023-02-01T02:08:56;4.10;99.90
21176;DHT22;10746;50.178;8.186;2023-02-01T02:11:23;4.20;99.90
21176;DHT22;10746;50.178;8.186;2023-02-01T02:13:55;4.20;99.90
21176;DHT22;10746;50.178;8.186;2023-02-01T02:16:38;4.10;99.90
21176;DHT22;10746;50.178;8.186;2023-02-01T02:22:19;4.10;99.90
21176;DHT22;10746;50.178;8.186;2023-02-01T02:25:12;4.10;99.90
21176;DHT22;10746;50.178;8.186;2023-02-01T02:27:46;4.10;99.90
21176;DHT22;10746;50.178;8.186;2023-02-01T02:30:41;4.10;99.90
21176;DHT22;10746;50.178;8.186;2023-02-01T02:33:37;4.10;99.90
21176;DHT22;10746;50.178;8.186;2023-02-01T02:36:10;4.10;99.90
21176;DHT22;10746;50.178;8.186;2023-02-01T02:38:47;4.10;99.90
21176;DHT22;10746;50.178;8.186;2023-02-01T02:41:20;4.10;99.90
21176;DHT22;10746;50.178;8.186;2023-02-01T02:44:10;4.10;99.90
21176;DHT22;10746;50.178;8.186;2023-02-01T02:47:01;4.10;99.90
21176;DHT22;10746;50.178;8.186;2023-02-01T02:49:51;4.10;99.90
21176;DHT22;10746;50.178;8.186;2023-02-01T02:52:33;4.10;99.90
21176;DHT22;10746;50.178;8.186;2023-02-01T02:55:19;4.20;99.90
21176;DHT22;10746;50.178;8.186;2023-02-01T02:57:46;4.10;99.90
21176;DHT22;10746;50.178;8.186;2023-02-01T03:00:32;4.10;99.90
21176;DHT22;10746;50.178;8.186;2023-02-01T03:03:17;4.10;99.90
21176;DHT22;10746;50.178;8.186;2023-02-01T03:06:03;4.20;99.90
21176;DHT22;10746;50.178;8.186;2023-02-01T03:08:31;4.10;99.90
21176;DHT22;10746;50.178;8.186;2023-02-01T03:11:01;4.10;99.90
21176;DHT22;10746;50.178;8.186;2023-02-01T03:13:35;4.10;99.90
21176;DHT22;10746;50.178;8.186;2023-02-01T03:16:07;4.10;99.90
21176;DHT22;10746;50.178;8.186;2023-02-01T03:18:43;4.10;99.90
21176;DHT22;10746;50.178;8.186;2023-02-01T03:21:18;4.10;99.90
21176;DHT22;10746;50.178;8.186;2023-02-01T03:23:47;4.20;99.90
21176;DHT22;10746;50.178;8.186;2023-02-01T03:26:17;4.10;99.90
21176;DHT22;10746;50.178;8.186;2023-02-01T03:28:49;4.10;99.90
21176;DHT22;10746;50.178;8.186;2023-02-01T03:31:18;4.00;99.90
21176;DHT22;10746;50.178;8.186;2023-02-01T03:33:45;4.00;99.90
21176;DHT22;10746;50.178;8.186;2023-02-01T03:36:19;4.00;99.90
21176;DHT22;10746;50.178;8.186;2023-02-01T03:38:52;4.10;99.90
21176;DHT22;10746;50.178;8.186;2023-02-01T03:41:28;4.10;99.90
21176;DHT22;10746;50.178;8.186;2023-02-01T03:44:01;4.10;99.90
21176;DHT22;10746;50.178;8.186;2023-02-01T03:46:32;4.10;99.90
21176;DHT22;10746;50.178;8.186;2023-02-01T03:49:02;4.10;99.90
21176;DHT22;10746;50.178;8.186;2023-02-01T03:51:32;4.00;99.90
21176;DHT22;10746;50.178;8.186;2023-02-01T03:53:59;4.00;99.90
21176;DHT22;10746;50.178;8.186;2023-02-01T03:56:29;4.10;99.90
21176;DHT22;10746;50.178;8.186;2023-02-01T03:58:57;4.00;99.90
21176;DHT22;10746;50.178;8.186;2023-02-01T04:01:28;4.00;99.90
21176;DHT22;10746;50.178;8.186;2023-02-01T04:03:55;4.00;99.90
21176;DHT22;10746;50.178;8.186;2023-02-01T04:06:22;4.00;99.90
21176;DHT22;10746;50.178;8.186;2023-02-01T04:08:50;4.00;99.90
21176;DHT22;10746;50.178;8.186;2023-02-01T04:11:17;4.00;99.90
21176;DHT22;10746;50.178;8.186;2023-02-01T04:13:44;4.00;99.90
21176;DHT22;10746;50.178;8.186;2023-02-01T04:16:11;3.90;99.90
21176;DHT22;10746;50.178;8.186;2023-02-01T04:18:38;4.00;99.90
21176;DHT22;10746;50.178;8.186;2023-02-01T04:21:05;3.90;99.90
21176;DHT22;10746;50.178;8.186;2023-02-01T04:23:32;3.90;99.90
21176;DHT22;10746;50.178;8.186;2023-02-01T04:26:00;4.00;99.90
21176;DHT22;10746;50.178;8.186;2023-02-01T04:28:27;3.90;99.90
21176;DHT22;10746;50.178;8.186;2023-02-01T04:30:54;3.90;99.90
21176;DHT22;10746;50.178;8.186;2023-02-01T04:33:21;4.00;99.90
21176;DHT22;10746;50.178;8.186;2023-02-01T04:35:49;3.90;99.90
21176;DHT22;10746;50.178;8.186;2023-02-01T04:38:16;3.90;99.90
21176;DHT22;10746;50.178;8.186;2023-02-01T04:40:43;3.90;99.90
21176;DHT22;10746;50.178;8.186;2023-02-01T04:43:11;3.90;99.90
21176;DHT22;10746;50.178;8.186;2023-02-01T04:45:37;3.90;99.90
21176;DHT22;10746;50.178;8.186;2023-02-01T04:48:05;3.90;99.90
21176;DHT22;10746;50.178;8.186;2023-02-01T04:50:31;3.80;99.90
21176;DHT22;10746;50.178;8.186;2023-02-01T04:52:58;3.90;99.90
21176;DHT22;10746;50.178;8.186;2023-02-01T04:55:25;3.90;99.90
21176;DHT22;10746;50.178;8.186;2023-02-01T04:57:51;4.00;99.90
21176;DHT22;10746;50.178;8.186;2023-02-01T05:00:20;3.90;99.90
21176;DHT22;10746;50.178;8.186;2023-02-01T05:02:47;3.90;99.90
21176;DHT22;10746;50.178;8.186;2023-02-01T05:05:14;3.90;99.90
21176;DHT22;10746;50.178;8.186;2023-02-01T05:07:40;3.90;99.90
21176;DHT22;10746;50.178;8.186;2023-02-01T05:10:08;3.90;99.90
21176;DHT22;10746;50.178;8.186;2023-02-01T05:12:35;3.90;99.90
21176;DHT22;10746;50.178;8.186;2023-02-01T05:15:21;3.90;99.90
21176;DHT22;10746;50.178;8.186;2023-02-01T05:17:48;3.90;99.90
21176;DHT22;10746;50.178;8.186;2023-02-01T05:20:14;3.90;99.90
21176;DHT22;10746;50.178;8.186;2023-02-01T05:22:41;4.00;99.90
21176;DHT22;10746;50.178;8.186;2023-02-01T05:25:08;4.00;99.90
21176;DHT22;10746;50.178;8.186;2023-02-01T05:27:35;3.90;99.90
21176;DHT22;10746;50.178;8.186;2023-02-01T05:30:02;3.90;99.90
21176;DHT22;10746;50.178;8.186;2023-02-01T05:32:31;3.90;99.90
21176;DHT22;10746;50.178;8.186;2023-02-01T05:34:58;3.90;99.90
21176;DHT22;10746;50.178;8.186;2023-02-01T05:37:25;3.90;99.90
21176;DHT22;10746;50.178;8.186;2023-02-01T05:39:52;3.90;99.90
21176;DHT22;10746;50.178;8.186;2023-02-01T05:42:19;3.90;99.90
21176;DHT22;10746;50.178;8.186;2023-02-01T05:44:46;3.90;99.90
21176;DHT22;10746;50.178;8.186;2023-02-01T05:47:12;3.80;99.90
21176;DHT22;10746;50.178;8.186;2023-02-01T05:49:41;3.90;99.90
21176;DHT22;10746;50.178;8.186;2023-02-01T05:52:08;3.90;99.90
21176;DHT22;10746;50.178;8.186;2023-02-01T05:54:35;3.90;99.90
21176;DHT22;10746;50.178;8.186;2023-02-01T05:57:02;3.90;99.90
21176;DHT22;10746;50.178;8.186;2023-02-01T05:59:29;3.90;99.90
21176;DHT22;10746;50.178;8.186;2023-02-01T06:01:55;3.90;99.90
21176;DHT22;10746;50.178;8.186;2023-02-01T06:04:22;3.80;99.90
21176;DHT22;10746;50.178;8.186;2023-02-01T06:06:50;3.70;99.90
21176;DHT22;10746;50.178;8.186;2023-02-01T06:09:17;3.70;99.90
21176;DHT22;10746;50.178;8.186;2023-02-01T06:11:44;3.70;99.90
21176;DHT22;10746;50.178;8.186;2023-02-01T06:14:10;3.60;99.90
21176;DHT22;10746;50.178;8.186;2023-02-01T06:16:37;3.60;99.90
21176;DHT22;10746;50.178;8.186;2023-02-01T06:19:04;3.50;99.90
21176;DHT22;10746;50.178;8.186;2023-02-01T06:21:31;3.30;99.90
21176;DHT22;10746;50.178;8.186;2023-02-01T06:24:00;3.30;99.90
21176;DHT22;10746;50.178;8.186;2023-02-01T06:26:26;3.20;99.90
21176;DHT22;10746;50.178;8.186;2023-02-01T06:28:54;3.30;99.90
21176;DHT22;10746;50.178;8.186;2023-02-01T06:31:21;3.30;99.90
21176;DHT22;10746;50.178;8.186;2023-02-01T06:33:48;3.30;99.90
21176;DHT22;10746;50.178;8.186;2023-02-01T06:36:15;3.20;99.90
21176;DHT22;10746;50.178;8.186;2023-02-01T06:38:44;3.20;99.90
21176;DHT22;10746;50.178;8.186;2023-02-01T06:41:12;3.10;99.90
21176;DHT22;10746;50.178;8.186;2023-02-01T06:43:39;3.10;99.90
21176;DHT22;10746;50.178;8.186;2023-02-01T06:46:08;3.00;99.90
21176;DHT22;10746;50.178;8.186;2023-02-01T06:48:35;3.10;99.90
21176;DHT22;10746;50.178;8.186;2023-02-01T06:51:02;3.00;99.90
21176;DHT22;10746;50.178;8.186;2023-02-01T06:53:30;3.10;99.90
21176;DHT22;10746;50.178;8.186;2023-02-01T06:55:58;3.10;99.90
21176;DHT22;10746;50.178;8.186;2023-02-01T06:58:29;3.00;99.90
21176;DHT22;10746;50.178;8.186;2023-02-01T07:00:57;2.90;99.90
21176;DHT22;10746;50.178;8.186;2023-02-01T07:03:23;2.90;99.90
21176;DHT22;10746;50.178;8.186;2023-02-01T07:05:53;2.90;99.90
21176;DHT22;10746;50.178;8.186;2023-02-01T07:08:21;3.00;99.90
21176;DHT22;10746;50.178;8.186;2023-02-01T07:10:47;3.00;99.90
21176;DHT22;10746;50.178;8.186;2023-02-01T07:13:14;3.00;99.90
21176;DHT22;10746;50.178;8.186;2023-02-01T07:15:42;3.00;99.90
21176;DHT22;10746;50.178;8.186;2023-02-01T07:18:09;3.00;99.90
21176;DHT22;10746;50.178;8.186;2023-02-01T07:20:36;3.00;99.90
21176;DHT22;10746;50.178;8.186;2023-02-01T07:23:02;2.90;99.90
21176;DHT22;10746;50.178;8.186;2023-02-01T07:25:29;3.00;99.90
21176;DHT22;10746;50.178;8.186;2023-02-01T07:27:56;3.10;99.90
21176;DHT22;10746;50.178;8.186;2023-02-01T07:30:23;3.00;99.90
21176;DHT22;10746;50.178;8.186;2023-02-01T07:32:52;3.00;99.90
21176;DHT22;10746;50.178;8.186;2023-02-01T07:35:19;3.10;99.90
21176;DHT22;10746;50.178;8.186;2023-02-01T07:37:46;3.20;99.90
21176;DHT22;10746;50.178;8.186;2023-02-01T07:40:13;3.30;99.90
21176;DHT22;10746;50.178;8.186;2023-02-01T07:42:39;3.50;99.90
21176;DHT22;10746;50.178;8.186;2023-02-01T07:45:07;3.50;99.90
21176;DHT22;10746;50.178;8.186;2023-02-01T07:47:34;3.60;99.90
21176;DHT22;10746;50.178;8.186;2023-02-01T07:50:02;3.70;99.90
21176;DHT22;10746;50.178;8.186;2023-02-01T07:52:29;3.90;99.90
21176;DHT22;10746;50.178;8.186;2023-02-01T07:54:56;4.10;99.90
21176;DHT22;10746;50.178;8.186;2023-02-01T07:57:22;4.20;99.90
21176;DHT22;10746;50.178;8.186;2023-02-01T07:59:49;4.40;99.90
21176;DHT22;10746;50.178;8.186;2023-02-01T08:02:31;4.40;99.90
21176;DHT22;10746;50.178;8.186;2023-02-01T08:04:58;4.50;99.90
21176;DHT22;10746;50.178;8.186;2023-02-01T08:07:26;4.60;99.90
21176;DHT22;10746;50.178;8.186;2023-02-01T08:09:52;4.50;99.90
21176;DHT22;10746;50.178;8.186;2023-02-01T08:12:19;4.60;99.90
21176;DHT22;10746;50.178;8.186;2023-02-01T08:14:46;4.50;99.90
21176;DHT22;10746;50.178;8.186;2023-02-01T08:17:13;4.40;99.90
21176;DHT22;10746;50.178;8.186;2023-02-01T08:19:39;4.30;99.90
21176;DHT22;10746;50.178;8.186;2023-02-01T08:22:06;4.30;99.90
21176;DHT22;10746;50.178;8.186;2023-02-01T08:24:34;4.40;99.90
21176;DHT22;10746;50.178;8.186;2023-02-01T08:27:03;4.60;99.90
21176;DHT22;10746;50.178;8.186;2023-02-01T08:29:30;4.80;99.90
21176;DHT22;10746;50.178;8.186;2023-02-01T08:31:56;4.90;99.90
21176;DHT22;10746;50.178;8.186;2023-02-01T08:34:23;4.80;99.90
21176;DHT22;10746;50.178;8.186;2023-02-01T08:36:50;4.60;99.90
21176;DHT22;10746;50.178;8.186;2023-02-01T08:39:23;4.50;99.90
21176;DHT22;10746;50.178;8.186;2023-02-01T08:41:52;4.40;99.90
21176;DHT22;10746;50.178;8.186;2023-02-01T08:44:33;4.30;99.90
21176;DHT22;10746;50.178;8.186;2023-02-01T08:46:59;4.30;99.90
21176;DHT22;10746;50.178;8.186;2023-02-01T08:49:26;4.20;99.90
21176;DHT22;10746;50.178;8.186;2023-02-01T08:51:53;4.20;99.90
21176;DHT22;10746;50.178;8.186;2023-02-01T08:54:20;4.20;99.90
21176;DHT22;10746;50.178;8.186;2023-02-01T08:56:47;4.20;99.90
21176;DHT22;10746;50.178;8.186;2023-02-01T08:59:15;4.10;99.90
21176;DHT22;10746;50.178;8.186;2023-02-01T09:01:42;4.10;99.90
21176;DHT22;10746;50.178;8.186;2023-02-01T09:04:09;4.10;99.90
21176;DHT22;10746;50.178;8.186;2023-02-01T09:06:35;4.20;99.90
21176;DHT22;10746;50.178;8.186;2023-02-01T09:09:02;4.20;99.90
21176;DHT22;10746;50.178;8.186;2023-02-01T09:11:29;4.20;99.90
21176;DHT22;10746;50.178;8.186;2023-02-01T09:13:56;4.20;99.90
21176;DHT22;10746;50.178;8.186;2023-02-01T09:16:24;4.20;99.90
21176;DHT22;10746;50.178;8.186;2023-02-01T09:18:51;4.10;99.90
21176;DHT22;10746;50.178;8.186;2023-02-01T09:21:18;4.10;99.90
21176;DHT22;10746;50.178;8.186;2023-02-01T09:23:44;4.20;99.90
21176;DHT22;10746;50.178;8.186;2023-02-01T09:26:14;4.20;99.90
21176;DHT22;10746;50.178;8.186;2023-02-01T09:28:40;4.20;99.90
21176;DHT22;10746;50.178;8.186;2023-02-01T09:31:07;4.10;99.90
21176;DHT22;10746;50.178;8.186;2023-02-01T09:33:35;4.20;99.90
21176;DHT22;10746;50.178;8.186;2023-02-01T09:36:04;4.30;99.90
21176;DHT22;10746;50.178;8.186;2023-02-01T09:38:31;4.30;99.90
21176;DHT22;10746;50.178;8.186;2023-02-01T09:40:58;4.30;99.90
21176;DHT22;10746;50.178;8.186;2023-02-01T09:43:35;4.30;99.90
21176;DHT22;10746;50.178;8.186;2023-02-01T09:46:20;4.30;99.90
21176;DHT22;10746;50.178;8.186;2023-02-01T09:48:52;4.20;99.90
21176;DHT22;10746;50.178;8.186;2023-02-01T09:51:23;4.20;99.90
21176;DHT22;10746;50.178;8.186;2023-02-01T09:53:59;4.20;99.90
21176;DHT22;10746;50.178;8.186;2023-02-01T09:56:33;4.30;99.90
21176;DHT22;10746;50.178;8.186;2023-02-01T09:59:08;4.30;99.90
21176;DHT22;10746;50.178;8.186;2023-02-01T10:01:36;4.20;99.90
21176;DHT22;10746;50.178;8.186;2023-02-01T10:04:06;4.30;99.90
21176;DHT22;10746;50.178;8.186;2023-02-01T10:06:45;4.30;99.90
21176;DHT22;10746;50.178;8.186;2023-02-01T10:09:22;4.30;99.90
21176;DHT22;10746;50.178;8.186;2023-02-01T10:12:04;4.30;99.90
21176;DHT22;10746;50.178;8.186;2023-02-01T10:14:57;4.40;99.90
21176;DHT22;10746;50.178;8.186;2023-02-01T10:17:37;4.40;99.90
21176;DHT22;10746;50.178;8.186;2023-02-01T10:20:18;4.50;99.90
21176;DHT22;10746;50.178;8.186;2023-02-01T10:22:53;4.50;99.90
21176;DHT22;10746;50.178;8.186;2023-02-01T10:25:27;4.50;99.90
21176;DHT22;10746;50.178;8.186;2023-02-01T10:27:56;4.50;99.90
21176;DHT22;10746;50.178;8.186;2023-02-01T10:30:25;4.50;99.90
21176;DHT22;10746;50.178;8.186;2023-02-01T10:32:56;4.50;99.90
21176;DHT22;10746;50.178;8.186;2023-02-01T10:35:29;4.40;99.90
21176;DHT22;10746;50.178;8.186;2023-02-01T10:38:00;4.40;99.90
21176;DHT22;10746;50.178;8.186;2023-02-01T10:40:28;4.40;99.90
21176;DHT22;10746;50.178;8.186;2023-02-01T10:42:58;4.40;99.90
21176;DHT22;10746;50.178;8.186;2023-02-01T10:45:28;4.40;99.90
21176;DHT22;10746;50.178;8.186;2023-02-01T10:47:56;4.40;99.90
21176;DHT22;10746;50.178;8.186;2023-02-01T10:50:34;4.40;99.90
21176;DHT22;10746;50.178;8.186;2023-02-01T10:53:05;4.40;99.90
21176;DHT22;10746;50.178;8.186;2023-02-01T10:55:36;4.40;99.90
21176;DHT22;10746;50.178;8.186;2023-02-01T10:58:05;4.40;99.90
21176;DHT22;10746;50.178;8.186;2023-02-01T11:00:48;4.50;99.90
21176;DHT22;10746;50.178;8.186;2023-02-01T11:03:33;4.60;99.90
21176;DHT22;10746;50.178;8.186;2023-02-01T11:06:04;4.60;99.90
21176;DHT22;10746;50.178;8.186;2023-02-01T11:08:42;4.60;99.90
21176;DHT22;10746;50.178;8.186;2023-02-01T11:11:09;4.60;99.90
21176;DHT22;10746;50.178;8.186;2023-02-01T11:13:39;4.70;99.90
21176;DHT22;10746;50.178;8.186;2023-02-01T11:16:08;4.70;99.90
21176;DHT22;10746;50.178;8.186;2023-02-01T11:18:38;4.80;99.90
21176;DHT22;10746;50.178;8.186;2023-02-01T11:21:08;4.90;99.90
21176;DHT22;10746;50.178;8.186;2023-02-01T11:23:40;4.90;99.90
21176;DHT22;10746;50.178;8.186;2023-02-01T11:26:11;4.90;99.90
21176;DHT22;10746;50.178;8.186;2023-02-01T11:28:40;5.00;99.90
21176;DHT22;10746;50.178;8.186;2023-02-01T11:31:11;4.90;99.90
21176;DHT22;10746;50.178;8.186;2023-02-01T11:33:45;5.00;99.90
21176;DHT22;10746;50.178;8.186;2023-02-01T11:36:17;4.90;99.90
21176;DHT22;10746;50.178;8.186;2023-02-01T11:38:51;4.90;99.90
21176;DHT22;10746;50.178;8.186;2023-02-01T11:41:22;5.00;99.90
21176;DHT22;10746;50.178;8.186;2023-02-01T11:43:55;5.00;99.90
21176;DHT22;10746;50.178;8.186;2023-02-01T11:46:28;5.00;99.90
21176;DHT22;10746;50.178;8.186;2023-02-01T11:48:56;5.00;99.90
21176;DHT22;10746;50.178;8.186;2023-02-01T11:51:39;4.90;99.90
21176;DHT22;10746;50.178;8.186;2023-02-01T11:54:18;5.00;99.90
21176;DHT22;10746;50.178;8.186;2023-02-01T11:57:03;4.90;99.90
21176;DHT22;10746;50.178;8.186;2023-02-01T11:59:47;4.90;99.90
21176;DHT22;10746;50.178;8.186;2023-02-01T12:02:30;5.00;99.90
21176;DHT22;10746;50.178;8.186;2023-02-01T12:05:22;5.10;99.90
21176;DHT22;10746;50.178;8.186;2023-02-01T12:08:13;5.20;99.90
21176;DHT22;10746;50.178;8.186;2023-02-01T12:10:51;5.30;99.90
21176;DHT22;10746;50.178;8.186;2023-02-01T12:13:29;5.20;99.90
21176;DHT22;10746;50.178;8.186;2023-02-01T12:16:07;5.00;99.90
21176;DHT22;10746;50.178;8.186;2023-02-01T12:19:02;5.00;99.90
21176;DHT22;10746;50.178;8.186;2023-02-01T12:21:54;5.00;99.90
21176;DHT22;10746;50.178;8.186;2023-02-01T12:24:48;5.10;99.90
21176;DHT22;10746;50.178;8.186;2023-02-01T12:27:34;5.20;99.90
21176;DHT22;10746;50.178;8.186;2023-02-01T12:30:17;5.40;99.90
21176;DHT22;10746;50.178;8.186;2023-02-01T12:32:58;5.30;99.90
21176;DHT22;10746;50.178;8.186;2023-02-01T12:35:39;5.50;99.90
21176;DHT22;10746;50.178;8.186;2023-02-01T12:38:19;5.30;99.90
21176;DHT22;10746;50.178;8.186;2023-02-01T12:41:01;5.30;99.90
21176;DHT22;10746;50.178;8.186;2023-02-01T12:43:38;5.30;99.90
21176;DHT22;10746;50.178;8.186;2023-02-01T12:46:10;5.40;99.90
21176;DHT22;10746;50.178;8.186;2023-02-01T12:48:41;5.20;99.90
21176;DHT22;10746;50.178;8.186;2023-02-01T12:51:13;5.10;99.90
21176;DHT22;10746;50.178;8.186;2023-02-01T12:53:45;5.00;99.90
21176;DHT22;10746;50.178;8.186;2023-02-01T12:56:20;5.00;99.90
21176;DHT22;10746;50.178;8.186;2023-02-01T12:58:49;5.00;99.90
21176;DHT22;10746;50.178;8.186;2023-02-01T13:01:21;5.00;99.90
21176;DHT22;10746;50.178;8.186;2023-02-01T13:03:55;5.00;99.90
21176;DHT22;10746;50.178;8.186;2023-02-01T13:06:29;5.10;99.90
21176;DHT22;10746;50.178;8.186;2023-02-01T13:09:02;5.10;99.90
21176;DHT22;10746;50.178;8.186;2023-02-01T13:11:33;5.20;99.90
21176;DHT22;10746;50.178;8.186;2023-02-01T13:14:03;5.10;99.90
21176;DHT22;10746;50.178;8.186;2023-02-01T13:16:33;5.10;99.90
21176;DHT22;10746;50.178;8.186;2023-02-01T13:19:08;5.00;99.90
21176;DHT22;10746;50.178;8.186;2023-02-01T13:21:40;5.00;99.90
21176;DHT22;10746;50.178;8.186;2023-02-01T13:24:20;5.00;99.90
21176;DHT22;10746;50.178;8.186;2023-02-01T13:26:49;5.00;99.90
21176;DHT22;10746;50.178;8.186;2023-02-01T13:29:20;5.00;99.90
21176;DHT22;10746;50.178;8.186;2023-02-01T13:32:04;5.00;99.90
21176;DHT22;10746;50.178;8.186;2023-02-01T13:40:39;4.90;99.90
21176;DHT22;10746;50.178;8.186;2023-02-01T13:43:12;5.00;99.90
21176;DHT22;10746;50.178;8.186;2023-02-01T13:45:46;5.00;99.90
21176;DHT22;10746;50.178;8.186;2023-02-01T13:48:20;4.90;99.90
21176;DHT22;10746;50.178;8.186;2023-02-01T13:50:52;4.90;99.90
21176;DHT22;10746;50.178;8.186;2023-02-01T13:53:25;4.90;99.90
21176;DHT22;10746;50.178;8.186;2023-02-01T13:55:59;4.90;99.90
21176;DHT22;10746;50.178;8.186;2023-02-01T13:58:34;5.00;99.90
21176;DHT22;10746;50.178;8.186;2023-02-01T14:01:31;5.00;99.90
21176;DHT22;10746;50.178;8.186;2023-02-01T14:03:59;5.00;99.90
21176;DHT22;10746;50.178;8.186;2023-02-01T14:06:40;5.00;99.90
21176;DHT22;10746;50.178;8.186;2023-02-01T14:09:18;5.00;99.90
21176;DHT22;10746;50.178;8.186;2023-02-01T14:11:50;5.10;99.90
21176;DHT22;10746;50.178;8.186;2023-02-01T14:14:49;5.20;99.90
21176;DHT22;10746;50.178;8.186;2023-02-01T14:17:34;5.20;99.90
21176;DHT22;10746;50.178;8.186;2023-02-01T14:23:23;5.20;99.90
21176;DHT22;10746;50.178;8.186;2023-02-01T14:26:05;5.20;99.90
21176;DHT22;10746;50.178;8.186;2023-02-01T14:28:36;5.20;99.90
21176;DHT22;10746;50.178;8.186;2023-02-01T14:31:15;5.20;99.90
21176;DHT22;10746;50.178;8.186;2023-02-01T14:33:43;5.10;99.90
21176;DHT22;10746;50.178;8.186;2023-02-01T14:36:12;5.10;99.90
21176;DHT22;10746;50.178;8.186;2023-02-01T14:38:47;5.10;99.90
21176;DHT22;10746;50.178;8.186;2023-02-01T14:41:26;5.20;99.90
21176;DHT22;10746;50.178;8.186;2023-02-01T14:44:22;5.20;99.90
21176;DHT22;10746;50.178;8.186;2023-02-01T14:53:10;5.20;99.90
21176;DHT22;10746;50.178;8.186;2023-02-01T14:55:41;5.20;99.90
21176;DHT22;10746;50.178;8.186;2023-02-01T14:58:16;5.20;99.90
21176;DHT22;10746;50.178;8.186;2023-02-01T15:00:50;5.10;99.90
21176;DHT22;10746;50.178;8.186;2023-02-01T15:03:31;5.10;99.90
21176;DHT22;10746;50.178;8.186;2023-02-01T15:06:00;5.10;99.90
21176;DHT22;10746;50.178;8.186;2023-02-01T15:08:30;5.10;99.90
21176;DHT22;10746;50.178;8.186;2023-02-01T15:11:00;5.00;99.90
21176;DHT22;10746;50.178;8.186;2023-02-01T15:13:29;5.00;99.90
21176;DHT22;10746;50.178;8.186;2023-02-01T15:16:09;5.00;99.90
21176;DHT22;10746;50.178;8.186;2023-02-01T15:18:37;5.10;99.90
21176;DHT22;10746;50.178;8.186;2023-02-01T15:21:05;5.00;99.90
21176;DHT22;10746;50.178;8.186;2023-02-01T15:23:34;5.00;99.90
21176;DHT22;10746;50.178;8.186;2023-02-01T15:26:00;5.00;99.90
21176;DHT22;10746;50.178;8.186;2023-02-01T15:28:27;5.00;99.90
21176;DHT22;10746;50.178;8.186;2023-02-01T15:30:56;4.90;99.90
21176;DHT22;10746;50.178;8.186;2023-02-01T15:33:24;4.80;99.90
21176;DHT22;10746;50.178;8.186;2023-02-01T15:35:52;4.80;99.90
21176;DHT22;10746;50.178;8.186;2023-02-01T15:38:25;4.70;99.90
21176;DHT22;10746;50.178;8.186;2023-02-01T15:40:59;4.70;99.90
21176;DHT22;10746;50.178;8.186;2023-02-01T15:43:28;4.80;99.90
21176;DHT22;10746;50.178;8.186;2023-02-01T15:45:57;4.80;99.90
21176;DHT22;10746;50.178;8.186;2023-02-01T15:48:26;4.80;99.90
21176;DHT22;10746;50.178;8.186;2023-02-01T15:50:54;4.80;99.90
21176;DHT22;10746;50.178;8.186;2023-02-01T15:53:24;4.80;99.90
21176;DHT22;10746;50.178;8.186;2023-02-01T15:55:59;4.80;99.90
21176;DHT22;10746;50.178;8.186;2023-02-01T15:58:27;4.80;99.90
21176;DHT22;10746;50.178;8.186;2023-02-01T16:00:56;4.90;99.90
21176;DHT22;10746;50.178;8.186;2023-02-01T16:03:32;4.80;99.90
21176;DHT22;10746;50.178;8.186;2023-02-01T16:06:03;4.80;99.90
21176;DHT22;10746;50.178;8.186;2023-02-01T16:08:31;4.90;99.90
21176;DHT22;10746;50.178;8.186;2023-02-01T16:11:19;4.90;99.90
21176;DHT22;10746;50.178;8.186;2023-02-01T16:13:46;4.90;99.90
21176;DHT22;10746;50.178;8.186;2023-02-01T16:16:13;4.90;99.90
21176;DHT22;10746;50.178;8.186;2023-02-01T16:18:40;4.90;99.90
21176;DHT22;10746;50.178;8.186;2023-02-01T16:21:07;4.90;99.90
21176;DHT22;10746;50.178;8.186;2023-02-01T16:23:34;4.90;99.90
21176;DHT22;10746;50.178;8.186;2023-02-01T16:26:03;5.00;99.90
21176;DHT22;10746;50.178;8.186;2023-02-01T16:28:31;5.00;99.90